Alsea, Oregon
Current Conditions -  °F | °C
As of 1:55 AM on Tuesday 21 Oct 2014 (Local Time) from KCVO Reporting Station
Overcast Overcast  
Wind Chill: 54°   Ceiling: 6000
Heat Index: 54°   Visibility: 10mi
Dew Point: 50°   Wind: 6mph
Humidity: 88%   Direction: 180°S
Pressure: 29.93"   Gusts: NA
Location:  44.38°N, 123.6°W
Report Text: KCVO 210855Z AUTO 18005KT 10SM FEW049 OVC060 12/10 A2993 RMK AO1 52014
Loading
Personal Weather Stations






























Interactive Weather Map New forecast layout! Learn more

10-Day Weather Forecast

Advertisements
Track Severe Weather on mobile